Time;durP1;ratioP1;P1;durP2;ratioP2;P2;SDS_P1;SDS_P2;PMS_P1;PMS_P2;Temp;Humidity;BMP_temperature;BMP_pressure;BME280_temperature;BME280_humidity;BME280_pressure;Samples;Min_cycle;Max_cycle;Signal;HPM_P1;HPM_P2
2022/04/05 00:02:20;;;;;;;6.87;6.17;;;;;;;5.70;100.00;95834.19;5030364;28;102526;-52
2022/04/05 00:04:47;;;;;;;7.80;7.00;;;;;;;5.69;100.00;95838.69;5030487;27;101887;-56
2022/04/05 00:07:15;;;;;;;7.23;6.53;;;;;;;5.62;100.00;95837.22;5030258;28;102663;-55
2022/04/05 00:09:42;;;;;;;7.70;6.43;;;;;;;5.62;100.00;95829.31;5030305;28;103054;-54
2022/04/05 00:12:09;;;;;;;6.80;6.20;;;;;;;5.59;100.00;95827.13;5029419;28;102092;-55
2022/04/05 00:14:38;;;;;;;6.63;5.93;;;;;;;5.51;100.00;95827.50;5030481;27;102517;-56
2022/04/05 00:17:06;;;;;;;7.20;6.50;;;;;;;5.48;100.00;95826.13;5030269;27;102481;-55
2022/04/05 00:19:33;;;;;;;7.30;6.27;;;;;;;5.46;100.00;95819.47;5034044;28;101852;-55
2022/04/05 00:22:00;;;;;;;9.93;6.73;;;;;;;5.40;100.00;95823.03;5030061;28;103165;-54
2022/04/05 00:24:27;;;;;;;7.27;6.40;;;;;;;5.43;100.00;95823.38;5028858;28;102090;-55
2022/04/05 00:26:55;;;;;;;6.73;6.07;;;;;;;5.35;100.00;95809.75;5030556;28;102321;-55
2022/04/05 00:29:22;;;;;;;7.13;6.43;;;;;;;5.25;100.00;95810.31;5029771;27;103046;-54
2022/04/05 00:31:49;;;;;;;7.50;6.20;;;;;;;5.26;100.00;95803.22;5028916;28;101935;-55
2022/04/05 00:34:17;;;;;;;6.93;6.30;;;;;;;5.17;100.00;95797.50;5029044;28;105168;-53
2022/04/05 00:36:45;;;;;;;7.73;6.93;;;;;;;5.16;100.00;95795.09;5029540;28;102743;-55
2022/04/05 00:39:12;;;;;;;8.30;7.50;;;;;;;5.08;100.00;95803.34;5030308;28;101777;-54
2022/04/05 00:41:39;;;;;;;7.60;6.50;;;;;;;5.10;100.00;95807.38;5033378;27;102369;-55
2022/04/05 00:44:06;;;;;;;6.60;6.00;;;;;;;5.02;100.00;95802.44;5028865;28;101923;-54
2022/04/05 00:46:32;;;;;;;9.07;6.13;;;;;;;5.07;100.00;95804.38;5030378;27;102596;-54
2022/04/05 00:49:02;;;;;;;6.97;6.27;;;;;;;5.13;100.00;95806.09;5029234;28;102506;-52
2022/04/05 00:51:30;;;;;;;6.80;6.10;;;;;;;5.19;100.00;95811.22;5028828;28;101737;-55
2022/04/05 00:54:01;;;;;;;7.37;6.60;;;;;;;5.22;100.00;95810.78;5028578;28;105095;-54
2022/04/05 00:56:29;;;;;;;7.33;6.63;;;;;;;5.21;100.00;95813.66;5028190;28;105285;-55
2022/04/05 00:59:00;;;;;;;6.43;5.73;;;;;;;5.21;100.00;95809.19;5028829;28;101946;-54
2022/04/05 01:01:29;;;;;;;7.57;6.30;;;;;;;5.23;100.00;95806.31;5028693;28;105623;-55
2022/04/05 01:03:58;;;;;;;6.80;5.83;;;;;;;5.20;100.00;95799.69;5031227;28;104390;-54
2022/04/05 01:06:28;;;;;;;7.77;6.40;;;;;;;5.13;100.00;95798.19;5028604;28;104679;-54
2022/04/05 01:08:57;;;;;;;6.73;6.03;;;;;;;5.28;100.00;95793.22;5029335;27;103560;-55
2022/04/05 01:11:25;;;;;;;6.70;5.93;;;;;;;5.27;100.00;95791.63;5029783;28;101975;-56
2022/04/05 01:13:53;;;;;;;6.53;5.93;;;;;;;5.28;100.00;95786.13;5029715;28;102548;-54
2022/04/05 01:16:20;;;;;;;7.00;6.30;;;;;;;5.23;100.00;95790.50;5028174;27;105008;-55
2022/04/05 01:18:49;;;;;;;6.80;6.13;;;;;;;5.26;100.00;95796.13;5033498;27;101973;-53
2022/04/05 01:21:17;;;;;;;6.53;5.83;;;;;;;5.25;100.00;95783.16;5032222;28;105365;-51
2022/04/05 01:24:04;;;;;;;7.87;6.07;;;;;;;5.33;100.00;95785.44;5031283;28;105070;-51
2022/04/05 01:26:39;;;;;;;6.57;5.70;;;;;;;5.36;100.00;95775.22;5036950;28;101713;-55
2022/04/05 01:29:06;;;;;;;6.07;5.47;;;;;;;5.38;100.00;95765.25;5032931;27;101703;-55
2022/04/05 01:31:37;;;;;;;7.47;6.17;;;;;;;5.29;100.00;95764.00;5033191;27;101818;-54
2022/04/05 01:34:04;;;;;;;6.43;5.83;;;;;;;5.28;100.00;95765.03;5033452;27;102827;-54
2022/04/05 01:36:31;;;;;;;7.30;6.30;;;;;;;5.30;100.00;95759.56;5032493;28;102661;-56
2022/04/05 01:39:00;;;;;;;8.90;5.53;;;;;;;5.30;100.00;95754.28;5033121;28;101806;-55
2022/04/05 01:41:27;;;;;;;5.90;5.40;;;;;;;5.27;100.00;95746.81;5031626;28;105703;-54
2022/04/05 01:43:54;;;;;;;6.13;5.53;;;;;;;5.30;100.00;95749.00;5032672;28;102822;-53
2022/04/05 01:46:21;;;;;;;5.80;5.30;;;;;;;5.35;100.00;95751.75;5032910;27;101957;-53
2022/04/05 01:48:48;;;;;;;6.20;5.50;;;;;;;5.38;100.00;95759.16;5035559;28;102920;-52
2022/04/05 01:51:15;;;;;;;5.90;5.40;;;;;;;5.38;100.00;95751.25;5033174;27;101890;-54
2022/04/05 01:53:42;;;;;;;5.80;5.27;;;;;;;5.37;100.00;95760.22;5033386;28;102422;-53
2022/04/05 01:56:11;;;;;;;5.50;5.00;;;;;;;5.36;100.00;95753.34;5030997;28;103688;-52
2022/04/05 01:58:38;;;;;;;5.83;5.33;;;;;;;5.32;100.00;95746.94;5031309;28;101819;-53
2022/04/05 02:01:06;;;;;;;6.40;5.27;;;;;;;5.25;100.00;95746.25;5032743;28;102899;-51
2022/04/05 02:03:34;;;;;;;6.27;5.27;;;;;;;5.23;100.00;95733.31;5031319;28;103107;-50
2022/04/05 02:06:03;;;;;;;5.40;4.90;;;;;;;5.18;100.00;95743.75;5031312;28;102221;-52
2022/04/05 02:08:30;;;;;;;5.30;4.80;;;;;;;5.15;100.00;95740.78;5034238;28;105450;-55
2022/04/05 02:10:57;;;;;;;6.03;5.40;;;;;;;5.10;100.00;95748.56;5031149;28;101711;-54
2022/04/05 02:13:33;;;;;;;6.27;5.67;;;;;;;5.04;100.00;95752.13;5031141;28;104820;-52
2022/04/05 02:16:03;;;;;;;6.10;5.50;;;;;;;5.02;100.00;95760.28;5030544;28;104948;-50
2022/04/05 02:18:32;;;;;;;7.30;5.83;;;;;;;4.97;100.00;95756.75;5031293;28;101762;-55
2022/04/05 02:21:01;;;;;;;6.40;5.37;;;;;;;5.02;100.00;95764.75;5031252;28;104715;-55
2022/04/05 02:23:31;;;;;;;5.00;4.60;;;;;;;5.08;100.00;95756.72;5030063;28;105205;-54
2022/04/05 02:26:11;;;;;;;6.73;5.40;;;;;;;5.08;100.00;95751.44;5031107;28;101872;-56
2022/04/05 02:28:45;;;;;;;5.90;4.90;;;;;;;5.09;100.00;95746.97;5030394;28;105343;-53
2022/04/05 02:31:16;;;;;;;5.67;5.17;;;;;;;5.04;100.00;95744.25;5033720;28;105278;-54
2022/04/05 02:33:44;;;;;;;5.90;5.17;;;;;;;5.04;100.00;95736.34;5031021;28;104757;-55
2022/04/05 02:36:20;;;;;;;5.80;5.30;;;;;;;5.08;100.00;95737.47;5030264;28;104297;-52
2022/04/05 02:38:49;;;;;;;6.93;5.57;;;;;;;5.13;100.00;95727.03;5032150;27;102114;-54
2022/04/05 02:41:17;;;;;;;5.30;4.80;;;;;;;5.19;100.00;95731.38;5030866;28;104709;-52
2022/04/05 02:43:47;;;;;;;7.07;5.20;;;;;;;5.36;100.00;95726.97;5030241;28;105116;-52
2022/04/05 02:46:15;;;;;;;8.57;5.13;;;;;;;5.48;100.00;95725.09;5030544;28;101883;-55
2022/04/05 02:48:46;;;;;;;7.30;5.50;;;;;;;5.47;100.00;95729.59;5030593;28;105191;-56
2022/04/05 02:51:19;;;;;;;7.23;5.10;;;;;;;5.52;100.00;95721.75;5030141;28;104870;-54
2022/04/05 02:53:47;;;;;;;7.17;5.63;;;;;;;5.57;100.00;95713.94;5034090;28;101894;-55
2022/04/05 02:56:15;;;;;;;5.87;5.00;;;;;;;5.57;100.00;95713.94;5029871;28;105460;-55
2022/04/05 02:58:43;;;;;;;6.20;5.10;;;;;;;5.65;100.00;95702.22;5030494;28;101916;-55
2022/04/05 03:01:13;;;;;;;5.80;4.50;;;;;;;5.67;100.00;95697.53;5030591;28;104631;-55
2022/04/05 03:03:41;;;;;;;5.73;5.20;;;;;;;5.69;100.00;95690.16;5029957;28;105044;-54
2022/04/05 03:06:07;;;;;;;5.37;4.87;;;;;;;5.72;100.00;95689.72;5030374;28;101855;-51
2022/04/05 03:08:35;;;;;;;5.20;4.67;;;;;;;5.75;100.00;95686.59;5030428;28;104284;-53
2022/04/05 03:11:05;;;;;;;6.30;5.30;;;;;;;5.81;100.00;95688.28;5029617;28;103851;-51
2022/04/05 03:13:32;;;;;;;5.93;5.40;;;;;;;5.88;100.00;95688.94;5030352;28;101817;-50
2022/04/05 03:16:00;;;;;;;5.17;4.70;;;;;;;5.93;100.00;95681.13;5033036;28;105114;-53
2022/04/05 03:18:30;;;;;;;5.30;4.80;;;;;;;5.97;100.00;95669.06;5030388;28;101997;-50
2022/04/05 03:20:58;;;;;;;5.60;5.10;;;;;;;6.03;100.00;95676.00;5030114;28;105257;-55
2022/04/05 03:23:26;;;;;;;4.50;4.10;;;;;;;6.07;100.00;95685.06;5030668;28;102610;-53
2022/04/05 03:25:54;;;;;;;4.60;4.20;;;;;;;6.06;100.00;95680.81;5030248;28;101953;-52
2022/04/05 03:28:26;;;;;;;4.87;4.27;;;;;;;5.94;100.00;95666.91;5030121;28;104781;-55
2022/04/05 03:30:55;;;;;;;5.03;4.40;;;;;;;5.83;100.00;95670.41;5029151;28;105668;-52
2022/04/05 03:33:23;;;;;;;4.53;4.13;;;;;;;5.59;100.00;95663.59;5030182;28;101847;-54
2022/04/05 03:35:54;;;;;;;6.00;4.63;;;;;;;5.48;100.00;95659.19;5029774;28;105275;-53
2022/04/05 03:38:22;;;;;;;5.13;4.63;;;;;;;5.42;100.00;95647.75;5032913;28;105464;-54
2022/04/05 03:40:52;;;;;;;4.77;4.30;;;;;;;5.37;100.00;95642.41;5028667;27;105037;-51
2022/04/05 03:43:19;;;;;;;4.83;4.37;;;;;;;5.22;100.00;95638.66;5029267;28;105678;-55
2022/04/05 03:45:52;;;;;;;4.93;4.53;;;;;;;5.24;100.00;95649.78;5029762;28;101869;-53
2022/04/05 03:48:20;;;;;;;4.83;4.37;;;;;;;5.23;100.00;95643.69;5029691;28;105118;-54
2022/04/05 03:50:48;;;;;;;5.80;5.20;;;;;;;5.27;100.00;95654.56;5028515;28;105346;-54
2022/04/05 03:53:17;;;;;;;6.03;4.70;;;;;;;5.15;100.00;95664.34;5031246;28;101667;-55
2022/04/05 03:55:44;;;;;;;5.37;4.87;;;;;;;5.23;100.00;95659.50;5029773;28;104767;-54
2022/04/05 03:58:15;;;;;;;6.97;4.70;;;;;;;5.23;100.00;95653.47;5028681;28;105059;-50
2022/04/05 04:00:44;;;;;;;5.90;4.93;;;;;;;5.20;100.00;95652.09;5032987;28;101750;-54
2022/04/05 04:03:18;;;;;;;5.50;5.00;;;;;;;5.23;100.00;95653.47;5029086;28;105420;-55
2022/04/05 04:05:49;;;;;;;6.27;5.60;;;;;;;5.20;100.00;95649.47;5029298;28;102023;-53
2022/04/05 04:08:19;;;;;;;5.37;4.70;;;;;;;5.26;100.00;95660.88;5029596;28;105188;-53
2022/04/05 04:10:49;;;;;;;7.17;5.50;;;;;;;5.26;100.00;95659.06;5028451;28;105068;-50
2022/04/05 04:13:19;;;;;;;6.07;5.03;;;;;;;5.28;100.00;95656.97;5028992;28;101892;-53
2022/04/05 04:15:48;;;;;;;6.73;5.27;;;;;;;5.28;100.00;95653.53;5029202;28;104933;-57
2022/04/05 04:18:17;;;;;;;6.30;5.00;;;;;;;5.22;100.00;95646.56;5028436;28;105195;-53
2022/04/05 04:20:48;;;;;;;6.07;5.47;;;;;;;5.27;100.00;95649.31;5032846;28;101969;-54
2022/04/05 04:23:19;;;;;;;6.50;5.90;;;;;;;5.26;100.00;95648.53;5028611;28;105114;-50
2022/04/05 04:25:51;;;;;;;4.80;4.40;;;;;;;5.33;100.00;95656.25;5029105;28;101781;-51
2022/04/05 04:28:19;;;;;;;5.93;5.33;;;;;;;5.36;100.00;95653.16;5028957;28;104926;-54
2022/04/05 04:30:46;;;;;;;8.87;5.40;;;;;;;5.36;100.00;95647.91;5028342;28;103649;-54
2022/04/05 04:33:13;;;;;;;5.47;4.90;;;;;;;5.44;100.00;95650.16;5029209;28;101827;-54
2022/04/05 04:35:42;;;;;;;5.57;4.50;;;;;;;5.65;100.00;95662.66;5030193;28;102979;-54
2022/04/05 04:38:10;;;;;;;3.13;2.83;;;;;;;5.89;100.00;95653.63;5028361;28;105936;-54
2022/04/05 04:40:40;;;;;;;3.30;2.77;;;;;;;6.15;100.00;95655.59;5028960;28;102081;-51
2022/04/05 04:43:07;;;;;;;3.10;2.83;;;;;;;6.27;100.00;95651.06;5031532;28;105605;-52
2022/04/05 04:45:36;;;;;;;6.30;3.47;;;;;;;6.16;100.00;95650.09;5028916;28;102011;-53
2022/04/05 04:48:03;;;;;;;2.93;2.70;;;;;;;6.15;100.00;95629.22;5028965;28;104295;-52
2022/04/05 04:50:29;;;;;;;3.57;2.60;;;;;;;6.36;100.00;95639.03;5027912;28;105289;-53
2022/04/05 04:52:58;;;;;;;3.40;2.90;;;;;;;6.32;100.00;95632.66;5028466;27;101856;-51
2022/04/05 04:55:25;;;;;;;3.53;3.10;;;;;;;6.30;100.00;95640.00;5028620;28;105181;-50
2022/04/05 04:57:53;;;;;;;3.23;2.50;;;;;;;6.34;100.00;95634.00;5028113;28;105561;-51
2022/04/05 05:00:22;;;;;;;2.50;2.30;;;;;;;6.54;100.00;95633.50;5028690;28;102318;-54
2022/04/05 05:02:49;;;;;;;3.50;2.23;;;;;;;6.66;100.00;95636.84;5030364;28;102617;-53
2022/04/05 05:05:18;;;;;;;3.23;2.00;;;;;;;6.69;100.00;95644.25;5031384;28;105757;-52
2022/04/05 05:07:45;;;;;;;2.70;2.23;;;;;;;6.70;100.00;95640.59;5029520;27;103956;-53
2022/04/05 05:10:13;;;;;;;2.40;1.80;;;;;;;6.80;100.00;95643.34;5029291;27;102878;-53
2022/04/05 05:12:42;;;;;;;2.40;2.20;;;;;;;6.86;100.00;95640.53;5028515;28;101826;-54
2022/04/05 05:15:15;;;;;;;2.40;2.20;;;;;;;6.87;100.00;95636.06;5029783;28;103261;-52
2022/04/05 05:17:42;;;;;;;2.50;2.30;;;;;;;6.98;98.71;95645.72;5029122;28;102808;-55
2022/04/05 05:20:10;;;;;;;2.97;1.80;;;;;;;6.95;100.00;95638.28;5030055;28;102010;-53
2022/04/05 05:22:39;;;;;;;2.20;2.00;;;;;;;6.92;100.00;95647.47;5028328;28;105472;-54
2022/04/05 05:25:07;;;;;;;2.33;2.13;;;;;;;6.92;100.00;95654.63;5027659;28;105683;-54
2022/04/05 05:27:34;;;;;;;3.43;2.07;;;;;;;6.95;100.00;95644.38;5031947;28;101851;-54
2022/04/05 05:30:01;;;;;;;3.43;1.90;;;;;;;7.02;99.94;95647.63;5027742;28;105290;-54
2022/04/05 05:32:30;;;;;;;1.60;1.50;;;;;;;7.06;99.79;95656.66;5028202;28;102275;-55
2022/04/05 05:34:58;;;;;;;3.13;2.00;;;;;;;7.08;99.21;95656.38;5028310;28;105054;-55
2022/04/05 05:37:24;;;;;;;2.23;1.90;;;;;;;7.11;99.32;95654.09;5027525;28;104048;-56
2022/04/05 05:39:51;;;;;;;2.47;1.70;;;;;;;7.10;100.00;95647.16;5028056;28;101757;-55
2022/04/05 05:42:19;;;;;;;1.60;1.50;;;;;;;7.13;100.00;95645.88;5028081;28;105365;-52
2022/04/05 05:44:46;;;;;;;3.10;1.90;;;;;;;7.14;100.00;95652.78;5027489;28;105109;-51
2022/04/05 05:47:14;;;;;;;3.33;2.27;;;;;;;7.16;100.00;95651.50;5028193;28;101801;-53
2022/04/05 05:49:42;;;;;;;2.03;1.87;;;;;;;7.24;98.94;95650.25;5030516;28;105055;-53
2022/04/05 05:52:09;;;;;;;2.40;2.20;;;;;;;7.23;98.79;95657.38;5027913;28;102399;-55
2022/04/05 05:54:36;;;;;;;3.13;1.90;;;;;;;7.26;99.29;95656.09;5027866;28;105153;-54
2022/04/05 05:57:03;;;;;;;1.90;1.80;;;;;;;7.25;100.00;95654.50;5027397;28;105364;-53
2022/04/05 05:59:30;;;;;;;2.03;1.93;;;;;;;7.20;100.00;95657.09;5027897;28;101926;-50
2022/04/05 06:01:58;;;;;;;2.80;1.80;;;;;;;7.21;100.00;95658.69;5027876;28;105537;-54
2022/04/05 06:04:25;;;;;;;3.83;2.93;;;;;;;6.96;100.00;95655.72;5029110;27;105312;-53
2022/04/05 06:06:53;;;;;;;3.87;3.27;;;;;;;6.87;100.00;95667.78;5031187;28;101761;-53
2022/04/05 06:09:20;;;;;;;4.43;3.20;;;;;;;6.77;100.00;95665.00;5031467;28;105066;-52
2022/04/05 06:11:47;;;;;;;7.37;3.13;;;;;;;6.85;100.00;95669.84;5033885;27;101868;-56
2022/04/05 06:14:15;;;;;;;2.63;2.43;;;;;;;6.88;100.00;95678.09;5031143;28;105123;-50
2022/04/05 06:16:42;;;;;;;2.43;2.23;;;;;;;6.98;100.00;95682.72;5030540;28;105877;-53
2022/04/05 06:19:09;;;;;;;3.87;2.17;;;;;;;7.11;100.00;95675.22;5031165;28;101857;-50
2022/04/05 06:21:36;;;;;;;3.43;2.30;;;;;;;7.18;100.00;95677.66;5031158;28;105541;-52
2022/04/05 06:24:06;;;;;;;2.23;2.10;;;;;;;7.23;100.00;95683.03;5030249;28;105969;-52
2022/04/05 06:26:33;;;;;;;1.83;1.73;;;;;;;7.25;100.00;95686.25;5031193;28;101885;-53
2022/04/05 06:29:00;;;;;;;1.87;1.67;;;;;;;7.27;100.00;95694.72;5031097;28;105213;-52
2022/04/05 06:31:28;;;;;;;1.80;1.37;;;;;;;7.31;100.00;95695.81;5035196;28;102833;-52
2022/04/05 06:33:57;;;;;;;2.83;1.80;;;;;;;7.30;100.00;95707.47;5031253;28;105615;-55
2022/04/05 06:36:23;;;;;;;2.10;1.83;;;;;;;7.33;100.00;95704.31;5030189;28;105625;-52
2022/04/05 06:38:51;;;;;;;2.87;2.00;;;;;;;7.26;100.00;95706.34;5030585;28;101821;-54
2022/04/05 06:41:19;;;;;;;2.20;1.80;;;;;;;7.27;100.00;95700.00;5030659;28;105275;-54
2022/04/05 06:43:46;;;;;;;3.40;2.40;;;;;;;7.23;100.00;95693.59;5030144;28;105564;-56
2022/04/05 06:46:15;;;;;;;4.37;2.90;;;;;;;7.22;100.00;95698.09;5030646;28;101765;-55
2022/04/05 06:48:42;;;;;;;3.80;2.60;;;;;;;7.18;100.00;95701.47;5030796;28;104887;-56
2022/04/05 06:51:09;;;;;;;3.03;2.77;;;;;;;7.15;100.00;95704.63;5029936;28;105053;-55
2022/04/05 06:53:36;;;;;;;3.53;2.30;;;;;;;7.12;100.00;95705.09;5034166;28;102316;-54
2022/04/05 06:56:03;;;;;;;6.63;3.10;;;;;;;7.08;100.00;95707.44;5030133;28;105804;-55
2022/04/05 06:58:32;;;;;;;4.50;3.43;;;;;;;7.08;100.00;95714.53;5030514;28;102171;-56
2022/04/05 07:01:00;;;;;;;3.13;2.80;;;;;;;7.09;100.00;95708.25;5031834;28;102587;-55
2022/04/05 07:03:27;;;;;;;3.37;1.90;;;;;;;7.10;100.00;95715.91;5029678;28;105229;-52
2022/04/05 07:05:54;;;;;;;3.57;3.23;;;;;;;7.09;100.00;95708.25;5030304;28;101844;-53
2022/04/05 07:08:21;;;;;;;3.57;1.70;;;;;;;7.07;100.00;95723.53;5030346;28;105129;-54
2022/04/05 07:10:49;;;;;;;3.27;1.90;;;;;;;7.05;100.00;95720.34;5029781;28;106332;-54
2022/04/05 07:13:16;;;;;;;1.83;1.43;;;;;;;7.01;100.00;95722.69;5029634;28;101957;-56
2022/04/05 07:15:45;;;;;;;2.07;1.60;;;;;;;7.02;100.00;95718.16;5032846;27;104887;-56
2022/04/05 07:18:11;;;;;;;1.60;1.47;;;;;;;7.03;100.00;95722.44;5030197;28;101852;-56
2022/04/05 07:20:39;;;;;;;2.07;1.50;;;;;;;6.94;100.00;95721.25;5030174;28;103957;-54
2022/04/05 07:23:06;;;;;;;1.27;1.27;;;;;;;6.94;100.00;95721.25;5029384;28;104213;-54
2022/04/05 07:25:35;;;;;;;1.47;1.37;;;;;;;6.88;100.00;95720.38;5030302;28;101827;-54
2022/04/05 07:28:05;;;;;;;2.50;1.43;;;;;;;6.91;100.00;95724.38;5029833;28;105016;-56
2022/04/05 07:30:32;;;;;;;4.10;1.63;;;;;;;6.91;100.00;95721.72;5029571;28;105373;-53
2022/04/05 07:33:00;;;;;;;2.30;1.50;;;;;;;6.92;100.00;95720.69;5029967;28;101957;-53
2022/04/05 07:35:28;;;;;;;3.80;1.83;;;;;;;6.89;100.00;95719.34;5029960;28;105251;-55
2022/04/05 07:37:55;;;;;;;5.77;4.67;;;;;;;6.86;100.00;95716.38;5032527;28;105280;-54
2022/04/05 07:40:25;;;;;;;3.93;3.60;;;;;;;6.84;100.00;95719.28;5029924;28;104912;-55
2022/04/05 07:42:52;;;;;;;8.87;7.70;;;;;;;6.84;100.00;95713.16;5030293;27;102650;-56
2022/04/05 07:45:19;;;;;;;4.80;4.30;;;;;;;6.91;100.00;95711.16;5029988;28;101856;-56
2022/04/05 07:47:47;;;;;;;5.57;4.67;;;;;;;7.02;100.00;95716.34;5030983;28;102391;-55
2022/04/05 07:50:15;;;;;;;3.83;3.20;;;;;;;7.00;100.00;95721.09;5028376;28;105250;-55
2022/04/05 07:52:44;;;;;;;6.17;3.90;;;;;;;6.93;100.00;95719.66;5029783;28;101902;-55
2022/04/05 07:55:11;;;;;;;6.43;5.53;;;;;;;7.11;100.00;95706.13;5029704;28;105469;-51
2022/04/05 07:57:40;;;;;;;3.90;3.60;;;;;;;7.03;100.00;95717.16;5029094;28;105366;-55
2022/04/05 08:00:08;;;;;;;5.83;3.53;;;;;;;7.08;100.00;95720.66;5032901;28;101912;-54
2022/04/05 08:02:41;;;;;;;3.33;3.03;;;;;;;6.94;100.00;95718.59;5029154;28;105303;-55
2022/04/05 08:05:09;;;;;;;5.80;3.90;;;;;;;6.95;100.00;95718.38;5029369;28;101962;-56
2022/04/05 08:07:38;;;;;;;3.07;2.77;;;;;;;6.95;100.00;95721.00;5029514;28;105560;-55
2022/04/05 08:10:06;;;;;;;3.53;2.53;;;;;;;6.91;100.00;95724.38;5028602;28;105337;-55
2022/04/05 08:12:36;;;;;;;3.13;2.50;;;;;;;6.92;100.00;95724.13;5029370;28;101961;-56
2022/04/05 08:15:04;;;;;;;3.97;2.50;;;;;;;6.93;100.00;95731.00;5029346;28;105239;-54
2022/04/05 08:17:31;;;;;;;4.00;3.20;;;;;;;6.90;100.00;95728.88;5028648;28;105608;-55
2022/04/05 08:19:59;;;;;;;4.17;3.07;;;;;;;7.05;100.00;95733.56;5032623;28;101877;-55
2022/04/05 08:22:26;;;;;;;4.13;3.40;;;;;;;6.98;100.00;95733.72;5028700;28;105366;-56
2022/04/05 08:24:55;;;;;;;3.57;3.27;;;;;;;6.98;100.00;95732.94;5029256;28;101782;-56
2022/04/05 08:27:22;;;;;;;4.77;3.63;;;;;;;7.00;100.00;95736.13;5029893;27;102257;-55
2022/04/05 08:29:50;;;;;;;4.00;3.70;;;;;;;7.05;100.00;95738.84;5028632;28;105171;-56
2022/04/05 08:32:17;;;;;;;3.83;3.37;;;;;;;7.01;100.00;95740.38;5028861;28;102076;-54
2022/04/05 08:34:46;;;;;;;3.77;3.10;;;;;;;7.17;100.00;95752.75;5029047;28;105461;-56
2022/04/05 08:37:15;;;;;;;4.73;4.00;;;;;;;7.16;100.00;95738.75;5029750;28;102664;-54
2022/04/05 08:39:43;;;;;;;4.30;3.90;;;;;;;7.10;100.00;95749.50;5029169;28;102195;-52
2022/04/05 08:42:13;;;;;;;3.60;3.30;;;;;;;7.03;100.00;95747.00;5031848;28;103591;-54
2022/04/05 08:44:43;;;;;;;4.60;3.60;;;;;;;7.16;100.00;95745.88;5029106;28;101754;-56
2022/04/05 08:47:12;;;;;;;3.67;3.37;;;;;;;7.16;100.00;95745.88;5028861;28;105104;-55
2022/04/05 08:49:40;;;;;;;4.30;3.90;;;;;;;7.16;100.00;95740.56;5027492;28;105247;-53
2022/04/05 08:52:07;;;;;;;5.20;4.10;;;;;;;7.25;100.00;95744.41;5028751;28;102099;-51
2022/04/05 08:54:36;;;;;;;5.70;4.07;;;;;;;7.23;100.00;95741.19;5028785;28;102985;-54
2022/04/05 08:57:03;;;;;;;4.57;4.17;;;;;;;7.21;100.00;95740.66;5028182;28;105742;-55
2022/04/05 08:59:32;;;;;;;4.30;3.90;;;;;;;7.35;100.00;95745.31;5028737;28;101843;-55
2022/04/05 09:01:59;;;;;;;4.90;4.30;;;;;;;7.44;100.00;95743.88;5028775;28;105516;-56
2022/04/05 09:04:33;;;;;;;6.70;5.27;;;;;;;7.49;100.00;95740.47;5031513;28;104235;-55
2022/04/05 09:07:19;;;;;;;6.17;4.87;;;;;;;7.42;100.00;95739.88;5028641;28;105188;-56
2022/04/05 09:09:46;;;;;;;5.70;5.20;;;;;;;7.41;100.00;95738.28;5028166;28;105192;-55
2022/04/05 09:12:17;;;;;;;6.47;5.03;;;;;;;7.26;100.00;95736.22;5028531;28;101893;-56
2022/04/05 09:14:47;;;;;;;5.63;5.13;;;;;;;7.46;100.00;95727.72;5028675;28;104847;-54
2022/04/05 09:17:14;;;;;;;4.80;4.07;;;;;;;7.50;100.00;95739.41;5027619;28;105931;-53
2022/04/05 09:19:45;;;;;;;5.30;4.70;;;;;;;7.50;100.00;95734.13;5028606;28;102035;-54
2022/04/05 09:22:14;;;;;;;5.57;4.30;;;;;;;7.42;100.00;95737.22;5030091;27;102973;-56
2022/04/05 09:24:43;;;;;;;7.37;5.03;;;;;;;7.65;100.00;95743.06;5028899;28;102736;-55
2022/04/05 09:27:11;;;;;;;6.87;6.17;;;;;;;7.94;100.00;95744.44;5031885;28;101873;-56
2022/04/05 09:29:39;;;;;;;4.60;4.20;;;;;;;7.89;100.00;95741.72;5027617;28;105721;-54
2022/04/05 09:32:09;;;;;;;5.17;4.00;;;;;;;8.01;100.00;95733.66;5028367;28;101874;-56
2022/04/05 09:34:48;;;;;;;7.43;6.57;;;;;;;8.19;100.00;95735.94;5028213;28;105109;-53
2022/04/05 09:37:16;;;;;;;5.60;4.97;;;;;;;8.21;100.00;95739.16;5028946;27;102770;-57
2022/04/05 09:39:43;;;;;;;4.63;4.13;;;;;;;8.13;100.00;95731.63;5030321;28;101942;-55
2022/04/05 09:42:11;;;;;;;6.37;4.43;;;;;;;8.19;100.00;95735.94;5033059;28;103116;-56
2022/04/05 09:44:40;;;;;;;6.10;4.40;;;;;;;8.18;100.00;95739.63;5030989;28;105491;-56
2022/04/05 09:47:11;;;;;;;5.33;4.83;;;;;;;8.37;100.00;95732.94;5031720;28;101812;-55
2022/04/05 09:49:39;;;;;;;4.63;4.23;;;;;;;8.46;100.00;95731.44;5034062;28;105360;-56
2022/04/05 09:52:24;;;;;;;5.37;3.93;;;;;;;8.36;100.00;95728.69;5031267;28;101847;-56
2022/04/05 09:54:52;;;;;;;5.77;3.73;;;;;;;8.47;100.00;95725.91;5031552;28;103685;-56
2022/04/05 09:57:28;;;;;;;4.77;4.10;;;;;;;8.74;100.00;95725.81;5032377;28;102569;-53
2022/04/05 10:00:07;;;;;;;6.23;5.20;;;;;;;8.81;100.00;95734.34;5032923;27;102123;-53
2022/04/05 10:03:00;;;;;;;5.03;3.97;;;;;;;8.64;100.00;95731.03;5029681;27;102108;-55
2022/04/05 10:05:29;;;;;;;7.20;3.90;;;;;;;8.86;100.00;95731.72;5030765;28;105800;-56
2022/04/05 10:07:57;;;;;;;5.10;3.50;;;;;;;8.97;100.00;95744.81;5032704;28;101961;-54
2022/04/05 10:10:24;;;;;;;3.80;3.10;;;;;;;8.97;100.00;95739.50;5032810;28;102662;-56
2022/04/05 10:12:51;;;;;;;5.23;3.77;;;;;;;9.11;100.00;95742.50;5033804;28;103705;-56
2022/04/05 10:15:21;;;;;;;3.70;3.40;;;;;;;9.02;100.00;95736.06;5032574;28;102946;-56
2022/04/05 10:17:50;;;;;;;4.77;3.40;;;;;;;9.17;100.00;95733.50;5030525;28;105714;-56
2022/04/05 10:20:18;;;;;;;4.30;3.90;;;;;;;9.21;100.00;95738.03;5031122;28;102006;-55
2022/04/05 10:22:53;;;;;;;5.87;4.40;;;;;;;9.41;100.00;95743.47;5030860;28;105373;-53
2022/04/05 10:25:23;;;;;;;5.23;4.07;;;;;;;9.36;100.00;95738.13;5031572;27;105102;-55
2022/04/05 10:27:50;;;;;;;8.07;5.07;;;;;;;9.32;100.00;95742.34;5030865;28;101842;-56
2022/04/05 10:30:24;;;;;;;4.27;3.87;;;;;;;9.47;100.00;95733.66;5030968;28;105633;-54
2022/04/05 10:33:04;;;;;;;5.73;5.00;;;;;;;9.54;100.00;95735.00;5035315;28;102847;-57
2022/04/05 10:35:33;;;;;;;4.20;3.80;;;;;;;9.51;100.00;95730.25;5030670;28;105251;-55
2022/04/05 10:38:11;;;;;;;7.47;3.83;;;;;;;9.46;100.00;95724.09;5030168;28;106397;-55
2022/04/05 10:40:38;;;;;;;5.00;3.90;;;;;;;9.41;100.00;95726.72;5031041;28;101897;-54
2022/04/05 10:43:17;;;;;;;5.77;3.87;;;;;;;9.21;100.00;95729.31;5030838;28;105112;-55
2022/04/05 10:45:45;;;;;;;6.37;4.33;;;;;;;9.35;100.00;95720.63;5031568;28;102625;-55
2022/04/05 10:48:16;;;;;;;6.80;4.73;;;;;;;9.38;100.00;95727.25;5030772;28;102044;-55
2022/04/05 10:50:44;;;;;;;6.87;4.30;;;;;;;9.41;100.00;95724.06;5029816;27;105472;-55
2022/04/05 10:53:20;;;;;;;5.13;4.50;;;;;;;9.28;100.00;95725.34;5031275;28;102756;-55
2022/04/05 10:56:16;;;;;;;5.23;4.63;;;;;;;9.40;100.00;95725.13;5033967;28;101831;-54
2022/04/05 10:59:18;;;;;;;4.80;4.37;;;;;;;9.73;100.00;95738.00;5029585;28;105458;-53
2022/04/05 11:01:46;;;;;;;6.50;5.10;;;;;;;9.78;100.00;95728.22;5030582;28;102106;-56
2022/04/05 11:04:36;;;;;;;5.10;4.60;;;;;;;9.83;100.00;95727.44;5030678;28;103785;-56
2022/04/05 11:07:11;;;;;;;6.60;4.10;;;;;;;9.78;100.00;95730.88;5029385;28;105398;-53
2022/04/05 11:09:50;;;;;;;5.20;4.70;;;;;;;9.90;100.00;95727.97;5030044;28;101863;-56
2022/04/05 11:12:21;;;;;;;4.77;4.17;;;;;;;9.91;100.00;95727.72;5030168;28;103794;-55
2022/04/05 11:14:52;;;;;;;4.47;4.10;;;;;;;9.81;100.00;95740.19;5029817;28;103784;-55
2022/04/05 11:17:21;;;;;;;4.03;3.70;;;;;;;9.83;100.00;95732.75;5030533;28;101784;-56
2022/04/05 11:19:57;;;;;;;4.10;3.70;;;;;;;9.96;100.00;95737.53;5034872;27;102497;-55
2022/04/05 11:22:36;;;;;;;4.90;3.77;;;;;;;9.92;100.00;95736.50;5030240;28;102162;-55
2022/04/05 11:25:06;;;;;;;4.23;3.83;;;;;;;9.83;100.00;95738.03;5032116;27;102273;-55
2022/04/05 11:27:38;;;;;;;5.30;4.20;;;;;;;9.87;100.00;95739.13;5029811;28;105416;-54
2022/04/05 11:30:39;;;;;;;4.00;3.70;;;;;;;9.90;100.00;95742.06;5030442;28;101911;-55
2022/04/05 11:33:23;;;;;;;4.80;3.80;;;;;;;10.02;100.00;95736.50;5031753;28;104338;-54
2022/04/05 11:35:54;;;;;;;4.03;3.73;;;;;;;10.13;100.00;95744.25;5030960;28;103154;-54